Time;durP1;ratioP1;P1;durP2;ratioP2;P2;SDS_P1;SDS_P2;PMS_P1;PMS_P2;Temp;Humidity;BMP_temperature;BMP_pressure;BME280_temperature;BME280_humidity;BME280_pressure;Samples;Min_cycle;Max_cycle;Signal;HPM_P1;HPM_P2
2021/09/29 00:02:11;;;;;;;1.02;0.70;;;15.80;99.90;;;;;;5095149;28;20422;-61
2021/09/29 00:04:39;;;;;;;1.53;1.00;;;15.90;99.90;;;;;;5094901;28;20479;-62
2021/09/29 00:07:06;;;;;;;1.30;0.90;;;16.00;99.90;;;;;;5094576;28;20418;-61
2021/09/29 00:09:37;;;;;;;1.90;1.00;;;16.10;99.90;;;;;;5095654;28;20426;-61
2021/09/29 00:12:11;;;;;;;2.00;0.80;;;16.20;99.90;;;;;;5095641;28;20418;-61
2021/09/29 00:14:43;;;;;;;1.27;0.90;;;16.20;99.90;;;;;;5093308;28;20483;-61
2021/09/29 00:17:13;;;;;;;1.38;0.88;;;16.10;99.90;;;;;;5092638;28;20868;-61
2021/09/29 00:19:43;;;;;;;1.80;0.90;;;16.10;99.90;;;;;;5092960;28;20426;-62
2021/09/29 00:22:13;;;;;;;1.20;0.90;;;16.20;99.90;;;;;;5093035;28;20425;-62
2021/09/29 00:24:42;;;;;;;1.25;0.90;;;16.20;99.90;;;;;;5092885;28;20444;-61
2021/09/29 00:27:12;;;;;;;3.35;1.17;;;16.20;99.90;;;;;;5092766;28;20418;-62
2021/09/29 00:29:42;;;;;;;2.05;1.00;;;16.10;99.90;;;;;;5093248;28;20418;-61
2021/09/29 00:32:11;;;;;;;1.80;1.10;;;15.90;99.90;;;;;;5095456;28;20475;-61
2021/09/29 00:34:40;;;;;;;1.60;1.13;;;15.70;99.90;;;;;;5093820;28;21602;-62
2021/09/29 00:37:07;;;;;;;2.20;1.20;;;15.60;99.90;;;;;;5092205;28;20430;-62
2021/09/29 00:39:39;;;;;;;2.15;1.20;;;15.50;99.90;;;;;;5092882;28;20421;-62
2021/09/29 00:42:07;;;;;;;2.55;1.20;;;15.40;99.90;;;;;;5092840;28;20873;-62
2021/09/29 00:44:37;;;;;;;2.08;1.38;;;15.30;99.90;;;;;;5092812;28;20434;-61
2021/09/29 00:47:04;;;;;;;1.83;1.10;;;15.30;99.90;;;;;;5093819;28;20875;-62
2021/09/29 00:49:32;;;;;;;2.22;1.20;;;15.30;99.90;;;;;;5094582;28;20780;-62
2021/09/29 00:51:59;;;;;;;1.90;1.20;;;15.30;99.90;;;;;;5094318;28;20421;-61
2021/09/29 00:54:30;;;;;;;2.50;1.20;;;15.20;99.90;;;;;;5094600;28;20820;-61
2021/09/29 00:56:58;;;;;;;1.90;1.20;;;15.20;99.90;;;;;;5094389;28;20428;-65
2021/09/29 00:59:28;;;;;;;2.00;1.20;;;15.20;99.90;;;;;;5093540;28;20426;-62
2021/09/29 01:01:57;;;;;;;2.25;1.48;;;15.10;99.90;;;;;;5092362;28;20453;-61
2021/09/29 01:04:27;;;;;;;2.00;1.10;;;15.00;99.90;;;;;;5091813;28;20787;-62
2021/09/29 01:07:05;;;;;;;1.75;1.02;;;15.00;99.90;;;;;;5093501;28;20474;-62
2021/09/29 01:09:40;;;;;;;2.60;1.10;;;15.00;99.90;;;;;;5093324;28;20734;-61
2021/09/29 01:12:16;;;;;;;2.47;1.02;;;15.00;99.90;;;;;;5091415;28;20418;-61
2021/09/29 01:14:48;;;;;;;2.40;1.40;;;15.20;99.90;;;;;;5090506;28;20551;-61
2021/09/29 01:17:20;;;;;;;3.50;1.20;;;15.20;99.90;;;;;;5090678;28;20414;-62
2021/09/29 01:20:08;;;;;;;3.00;1.10;;;15.20;99.90;;;;;;5090405;28;20429;-62
2021/09/29 01:22:56;;;;;;;2.60;1.13;;;15.10;99.90;;;;;;5089649;28;20449;-61
2021/09/29 01:25:36;;;;;;;2.90;1.20;;;15.00;99.90;;;;;;5091477;28;20461;-61
2021/09/29 01:28:07;;;;;;;2.10;1.10;;;15.00;99.90;;;;;;5093948;28;20413;-61
2021/09/29 01:30:36;;;;;;;2.50;1.13;;;14.80;99.90;;;;;;5094893;28;20425;-62
2021/09/29 01:33:05;;;;;;;2.30;1.10;;;14.70;99.90;;;;;;5097534;28;20462;-61
2021/09/29 01:35:34;;;;;;;2.20;1.30;;;14.60;99.90;;;;;;5098204;28;20429;-62
2021/09/29 01:38:01;;;;;;;1.80;1.00;;;14.60;99.90;;;;;;5098546;28;20429;-62
2021/09/29 01:40:30;;;;;;;2.70;1.30;;;14.50;99.90;;;;;;5097102;28;20744;-62
2021/09/29 01:42:58;;;;;;;1.90;1.10;;;14.40;99.90;;;;;;5096485;28;20418;-62
2021/09/29 01:45:27;;;;;;;2.38;1.00;;;14.50;99.90;;;;;;5097308;28;20433;-61
2021/09/29 01:47:54;;;;;;;3.30;1.20;;;14.60;99.90;;;;;;5097704;28;20417;-61
2021/09/29 01:50:26;;;;;;;4.50;1.10;;;14.60;99.90;;;;;;5097157;28;20429;-61
2021/09/29 01:52:55;;;;;;;2.55;1.20;;;14.60;99.90;;;;;;5098231;28;20418;-61
2021/09/29 01:55:25;;;;;;;2.00;1.10;;;14.70;99.90;;;;;;5097800;28;20439;-61
2021/09/29 01:57:54;;;;;;;2.20;1.20;;;14.60;99.90;;;;;;5098689;28;20430;-61
2021/09/29 02:00:23;;;;;;;2.45;1.00;;;14.60;99.90;;;;;;5098219;28;20486;-61
2021/09/29 02:02:55;;;;;;;1.70;1.00;;;14.60;99.90;;;;;;5097267;28;20429;-62
2021/09/29 02:05:30;;;;;;;1.70;1.10;;;14.50;99.90;;;;;;5097367;28;20479;-61
2021/09/29 02:07:57;;;;;;;2.00;1.00;;;14.50;99.90;;;;;;5098260;28;20464;-61
2021/09/29 02:10:25;;;;;;;1.75;1.20;;;14.60;99.90;;;;;;5098304;28;20464;-61
2021/09/29 02:12:52;;;;;;;2.00;1.10;;;14.60;99.90;;;;;;5097511;28;20474;-61
2021/09/29 02:15:21;;;;;;;2.30;1.10;;;14.50;99.90;;;;;;5095975;28;20433;-62
2021/09/29 02:17:49;;;;;;;1.20;0.93;;;14.50;99.90;;;;;;5096107;28;20434;-61
2021/09/29 02:20:19;;;;;;;1.60;1.00;;;14.40;99.90;;;;;;5096558;28;20421;-61
2021/09/29 02:22:47;;;;;;;1.60;1.00;;;14.40;99.90;;;;;;5096245;28;20721;-62
2021/09/29 02:25:16;;;;;;;1.30;1.00;;;14.40;99.90;;;;;;5096486;28;20749;-61
2021/09/29 02:27:43;;;;;;;1.50;1.00;;;14.50;99.90;;;;;;5096710;28;20465;-61
2021/09/29 02:30:14;;;;;;;1.55;1.00;;;14.40;99.90;;;;;;5096916;28;20719;-61
2021/09/29 02:32:42;;;;;;;1.80;1.00;;;14.40;99.90;;;;;;5096923;28;20434;-61
2021/09/29 02:35:12;;;;;;;1.27;1.00;;;14.40;99.90;;;;;;5096652;28;20425;-61
2021/09/29 02:37:41;;;;;;;1.70;0.90;;;14.40;99.90;;;;;;5096945;28;20414;-61
2021/09/29 02:40:10;;;;;;;2.50;0.90;;;14.50;99.90;;;;;;5096672;28;20502;-62
2021/09/29 02:42:37;;;;;;;2.13;1.10;;;14.50;99.90;;;;;;5095069;28;20421;-61
2021/09/29 02:45:06;;;;;;;1.58;0.90;;;14.50;99.90;;;;;;5097226;28;20791;-61
2021/09/29 02:47:34;;;;;;;1.25;0.90;;;14.40;99.90;;;;;;5097121;28;20507;-61
2021/09/29 02:50:01;;;;;;;1.30;0.90;;;14.40;99.90;;;;;;5095965;28;20426;-61
2021/09/29 02:52:29;;;;;;;1.50;0.80;;;14.40;99.90;;;;;;5096612;28;20422;-61
2021/09/29 02:54:57;;;;;;;2.13;1.00;;;14.50;99.90;;;;;;5096810;28;20429;-61
2021/09/29 02:57:25;;;;;;;1.42;0.90;;;14.50;99.90;;;;;;5096659;28;20475;-61
2021/09/29 02:59:53;;;;;;;1.60;1.00;;;14.60;99.90;;;;;;5096923;28;20499;-61
2021/09/29 03:02:21;;;;;;;2.00;0.90;;;14.60;99.90;;;;;;5096881;28;20422;-61
2021/09/29 03:04:48;;;;;;;1.40;0.90;;;14.60;99.90;;;;;;5097170;28;20483;-62
2021/09/29 03:07:15;;;;;;;3.05;1.00;;;14.60;99.90;;;;;;5096952;28;20422;-61
2021/09/29 03:09:43;;;;;;;1.90;1.00;;;14.60;99.90;;;;;;5096984;28;20421;-61
2021/09/29 03:12:12;;;;;;;2.00;1.00;;;14.50;99.90;;;;;;5097131;28;20779;-61
2021/09/29 03:14:39;;;;;;;2.43;1.00;;;14.40;99.90;;;;;;5096238;28;20426;-61
2021/09/29 03:17:06;;;;;;;3.60;1.00;;;14.30;99.90;;;;;;5095757;28;20467;-61
2021/09/29 03:19:34;;;;;;;1.80;0.90;;;14.40;99.90;;;;;;5095566;28;20438;-61
2021/09/29 03:22:02;;;;;;;3.03;0.90;;;14.30;99.90;;;;;;5095753;28;20452;-61
2021/09/29 03:24:30;;;;;;;1.60;1.00;;;14.10;99.90;;;;;;5096805;28;20434;-61
2021/09/29 03:26:58;;;;;;;2.05;1.00;;;14.00;99.90;;;;;;5095492;28;20463;-60
2021/09/29 03:29:26;;;;;;;1.52;0.95;;;13.90;99.90;;;;;;5095521;28;20467;-60
2021/09/29 03:31:54;;;;;;;2.23;1.00;;;13.90;99.90;;;;;;5095720;28;20896;-60
2021/09/29 03:34:21;;;;;;;1.70;0.90;;;13.90;99.90;;;;;;5095815;28;20418;-60
2021/09/29 03:36:49;;;;;;;1.05;0.80;;;13.90;99.90;;;;;;5096305;28;20506;-60
2021/09/29 03:39:16;;;;;;;4.00;1.00;;;13.90;99.90;;;;;;5095401;28;20430;-60
2021/09/29 03:41:44;;;;;;;1.63;1.00;;;13.90;99.90;;;;;;5095717;28;20463;-61
2021/09/29 03:44:11;;;;;;;1.70;1.00;;;13.80;99.90;;;;;;5095401;28;20473;-60
2021/09/29 03:46:40;;;;;;;1.70;1.10;;;13.80;99.90;;;;;;5094503;28;20744;-62
2021/09/29 03:49:07;;;;;;;1.38;1.00;;;13.80;99.90;;;;;;5094040;28;20421;-61
2021/09/29 03:51:35;;;;;;;1.90;1.10;;;13.80;99.90;;;;;;5094720;28;20712;-61
2021/09/29 03:54:02;;;;;;;2.08;1.00;;;13.90;99.90;;;;;;5094495;28;20865;-61
2021/09/29 03:56:30;;;;;;;2.15;1.00;;;14.10;99.90;;;;;;5094808;28;20498;-61
2021/09/29 03:58:57;;;;;;;1.30;1.00;;;14.20;99.90;;;;;;5094568;28;20491;-62
2021/09/29 04:01:25;;;;;;;1.30;0.90;;;14.30;99.90;;;;;;5095137;28;20853;-61
2021/09/29 04:03:53;;;;;;;1.70;0.90;;;14.30;99.90;;;;;;5095470;28;20471;-61
2021/09/29 04:06:21;;;;;;;1.45;1.00;;;14.50;99.90;;;;;;5094908;28;20836;-61
2021/09/29 04:08:48;;;;;;;1.30;0.90;;;14.60;99.90;;;;;;5094961;28;20421;-61
2021/09/29 04:11:15;;;;;;;1.40;1.00;;;14.70;99.90;;;;;;5095595;28;20430;-61
2021/09/29 04:13:43;;;;;;;1.90;0.93;;;14.70;99.90;;;;;;5094835;28;20845;-61
2021/09/29 04:16:10;;;;;;;2.60;0.98;;;14.70;99.90;;;;;;5095998;28;20745;-61
2021/09/29 04:18:38;;;;;;;1.20;0.90;;;14.70;99.90;;;;;;5095788;28;20510;-61
2021/09/29 04:21:07;;;;;;;1.38;0.90;;;14.70;99.90;;;;;;5095200;28;20440;-61
2021/09/29 04:23:35;;;;;;;1.30;0.90;;;14.80;99.90;;;;;;5094131;28;20457;-61
2021/09/29 04:26:04;;;;;;;1.50;0.80;;;14.80;99.90;;;;;;5094191;28;20421;-61
2021/09/29 04:28:32;;;;;;;1.30;0.85;;;14.70;99.90;;;;;;5094139;28;20401;-62
2021/09/29 04:30:59;;;;;;;1.20;0.80;;;14.70;99.90;;;;;;5094274;28;20426;-62
2021/09/29 04:33:27;;;;;;;1.85;0.80;;;14.60;99.90;;;;;;5093780;28;20425;-62
2021/09/29 04:35:54;;;;;;;1.60;0.80;;;14.70;99.90;;;;;;5093248;28;20478;-62
2021/09/29 04:38:23;;;;;;;1.58;0.90;;;14.70;99.90;;;;;;5094072;28;20441;-62
2021/09/29 04:40:50;;;;;;;1.20;0.80;;;14.70;99.90;;;;;;5092770;28;20486;-62
2021/09/29 04:43:18;;;;;;;1.90;0.77;;;14.70;99.90;;;;;;5093828;28;20421;-63
2021/09/29 04:45:47;;;;;;;1.15;0.88;;;14.70;99.90;;;;;;5094887;28;20864;-62
2021/09/29 04:48:14;;;;;;;1.50;0.70;;;14.70;99.90;;;;;;5094691;28;20453;-62
2021/09/29 04:50:42;;;;;;;1.33;0.70;;;14.70;99.90;;;;;;5095860;28;20611;-62
2021/09/29 04:53:10;;;;;;;2.10;0.77;;;14.80;99.90;;;;;;5094800;28;20813;-63
2021/09/29 04:55:39;;;;;;;0.90;0.70;;;14.80;99.90;;;;;;5093510;28;20426;-61
2021/09/29 04:58:07;;;;;;;2.70;0.80;;;14.90;99.90;;;;;;5092352;28;20583;-61
2021/09/29 05:00:34;;;;;;;1.20;0.70;;;14.90;99.90;;;;;;5091223;28;20425;-62
2021/09/29 05:03:03;;;;;;;1.10;0.60;;;14.90;99.90;;;;;;5090908;28;20420;-61
2021/09/29 05:05:33;;;;;;;1.02;0.60;;;14.90;99.90;;;;;;5086630;28;20440;-61
2021/09/29 05:08:03;;;;;;;1.00;0.60;;;14.90;99.90;;;;;;5092529;28;20426;-61
2021/09/29 05:10:39;;;;;;;1.15;0.60;;;14.80;99.90;;;;;;5092979;28;20453;-61
2021/09/29 05:13:13;;;;;;;0.93;0.65;;;14.80;99.90;;;;;;5093642;28;20418;-61
2021/09/29 05:15:41;;;;;;;1.20;0.70;;;14.90;99.90;;;;;;5092872;28;20521;-61
2021/09/29 05:18:08;;;;;;;0.90;0.60;;;14.90;99.90;;;;;;5094886;28;20475;-61
2021/09/29 05:20:36;;;;;;;1.00;0.60;;;15.00;99.90;;;;;;5094877;28;20434;-62
2021/09/29 05:23:04;;;;;;;1.17;0.60;;;15.10;99.90;;;;;;5093155;28;20422;-62
2021/09/29 05:25:32;;;;;;;1.10;0.80;;;15.00;99.90;;;;;;5093491;28;20422;-61
2021/09/29 05:28:01;;;;;;;1.40;0.70;;;14.90;99.90;;;;;;5093627;28;20422;-61
2021/09/29 05:30:30;;;;;;;1.60;0.70;;;14.80;99.90;;;;;;5094125;28;20809;-61
2021/09/29 05:32:57;;;;;;;2.40;0.70;;;14.80;99.90;;;;;;5093134;28;20456;-61
2021/09/29 05:35:25;;;;;;;1.25;0.60;;;14.60;99.90;;;;;;5092843;28;20502;-62
2021/09/29 05:37:52;;;;;;;1.23;0.70;;;14.60;99.90;;;;;;5092635;28;20417;-61
2021/09/29 05:40:20;;;;;;;1.60;0.70;;;14.60;99.90;;;;;;5090550;28;20517;-61
2021/09/29 05:42:47;;;;;;;1.00;0.70;;;14.60;99.90;;;;;;5090056;28;20418;-61
2021/09/29 05:45:15;;;;;;;0.95;0.70;;;14.60;99.90;;;;;;5089628;28;20459;-61
2021/09/29 05:47:44;;;;;;;1.10;0.80;;;14.60;99.90;;;;;;5088925;28;20465;-62
2021/09/29 05:50:12;;;;;;;0.98;0.60;;;14.50;99.90;;;;;;5090956;28;20430;-62
2021/09/29 05:52:40;;;;;;;1.63;0.70;;;14.60;99.90;;;;;;5091647;28;20417;-62
2021/09/29 05:55:09;;;;;;;1.15;0.70;;;14.60;99.90;;;;;;5092141;28;20422;-62
2021/09/29 05:57:37;;;;;;;1.10;0.80;;;14.50;99.90;;;;;;5093266;28;20424;-61
2021/09/29 06:00:12;;;;;;;1.02;0.75;;;14.50;99.90;;;;;;5092420;28;20898;-62
2021/09/29 06:02:40;;;;;;;2.22;0.70;;;14.60;99.90;;;;;;5092573;28;20504;-62
2021/09/29 06:05:12;;;;;;;1.45;0.70;;;14.50;99.90;;;;;;5093841;28;20430;-62
2021/09/29 06:07:40;;;;;;;1.77;0.70;;;14.50;99.90;;;;;;5092614;28;20821;-62
2021/09/29 06:10:12;;;;;;;2.17;0.70;;;14.50;99.90;;;;;;5092311;28;20532;-62
2021/09/29 06:12:40;;;;;;;1.70;0.70;;;14.60;99.90;;;;;;5089274;28;20428;-62
2021/09/29 06:15:19;;;;;;;1.63;0.80;;;14.70;99.90;;;;;;5089306;28;20440;-62
2021/09/29 06:17:54;;;;;;;1.50;0.60;;;14.80;99.90;;;;;;5090660;28;20425;-62
2021/09/29 06:20:26;;;;;;;0.90;0.60;;;15.00;99.90;;;;;;5080748;28;20526;-63
2021/09/29 06:22:55;;;;;;;1.30;0.70;;;15.30;99.90;;;;;;5086975;28;20521;-63
2021/09/29 06:25:22;;;;;;;1.10;0.70;;;15.40;99.90;;;;;;5075572;28;20917;-63
2021/09/29 06:27:50;;;;;;;1.00;0.63;;;15.50;99.90;;;;;;5090824;28;20425;-62
2021/09/29 06:30:20;;;;;;;2.00;0.70;;;15.40;99.90;;;;;;5079771;28;20434;-62
2021/09/29 06:32:48;;;;;;;1.95;0.70;;;15.50;99.90;;;;;;5076350;28;20566;-62
2021/09/29 06:35:16;;;;;;;2.60;0.70;;;15.30;99.90;;;;;;5075140;28;20434;-62
2021/09/29 06:37:45;;;;;;;0.80;0.60;;;15.30;99.90;;;;;;5083224;28;20426;-62
2021/09/29 06:40:18;;;;;;;1.42;0.60;;;15.30;99.90;;;;;;5083082;28;20444;-61
2021/09/29 06:42:46;;;;;;;1.60;0.67;;;15.30;99.90;;;;;;5080839;28;20514;-61
2021/09/29 06:45:15;;;;;;;0.98;0.60;;;15.40;99.90;;;;;;5091441;28;20430;-61
2021/09/29 06:47:45;;;;;;;0.90;0.60;;;15.30;99.90;;;;;;5086683;28;20425;-61
2021/09/29 06:50:14;;;;;;;1.10;0.60;;;15.30;99.90;;;;;;5081820;28;20864;-61
2021/09/29 06:52:42;;;;;;;1.13;0.70;;;15.30;99.90;;;;;;5088314;28;20774;-61
2021/09/29 06:55:15;;;;;;;1.75;0.50;;;15.20;99.90;;;;;;5080920;28;20440;-61
2021/09/29 06:57:43;;;;;;;1.40;0.60;;;15.30;99.90;;;;;;5087793;28;20425;-61
2021/09/29 07:00:17;;;;;;;2.10;0.50;;;15.40;99.90;;;;;;5085707;28;20441;-61
2021/09/29 07:02:46;;;;;;;1.20;0.60;;;15.40;99.90;;;;;;5093925;28;20623;-61
2021/09/29 07:05:15;;;;;;;1.00;0.50;;;15.40;99.90;;;;;;5083585;28;20430;-59
2021/09/29 07:07:42;;;;;;;0.90;0.60;;;15.50;99.90;;;;;;5073754;28;20723;-59
2021/09/29 07:10:14;;;;;;;1.30;0.50;;;15.60;99.90;;;;;;5085227;28;20452;-60
2021/09/29 07:12:43;;;;;;;2.60;0.50;;;15.70;99.90;;;;;;5074115;28;20782;-60
2021/09/29 07:15:14;;;;;;;1.73;0.60;;;15.80;99.90;;;;;;5089652;28;20505;-60
2021/09/29 07:17:41;;;;;;;1.90;0.50;;;15.90;99.90;;;;;;5077892;28;20803;-60
2021/09/29 07:20:13;;;;;;;1.40;0.50;;;16.00;99.90;;;;;;5086080;28;20738;-60
2021/09/29 07:22:42;;;;;;;1.30;0.50;;;16.20;99.90;;;;;;5090022;28;20488;-60
2021/09/29 07:25:13;;;;;;;0.80;0.50;;;16.20;99.90;;;;;;5084211;28;20432;-60
2021/09/29 07:27:40;;;;;;;0.70;0.40;;;16.20;99.90;;;;;;5088344;28;20711;-60
2021/09/29 07:30:15;;;;;;;1.55;0.50;;;16.40;99.90;;;;;;5076665;28;20872;-59
2021/09/29 07:32:45;;;;;;;1.05;0.50;;;16.60;99.90;;;;;;5090586;28;20421;-60
2021/09/29 07:35:13;;;;;;;0.70;0.40;;;16.70;99.90;;;;;;5092407;28;20422;-60
2021/09/29 07:37:41;;;;;;;1.70;0.40;;;16.80;99.90;;;;;;5092391;28;20864;-60
2021/09/29 07:40:18;;;;;;;0.70;0.40;;;16.80;99.90;;;;;;5088638;28;20520;-60
2021/09/29 07:42:45;;;;;;;0.63;0.40;;;16.60;99.90;;;;;;5076931;28;20424;-60
2021/09/29 07:45:13;;;;;;;1.20;0.40;;;16.60;99.90;;;;;;5072551;28;20790;-60
2021/09/29 07:47:40;;;;;;;0.90;0.47;;;16.70;99.90;;;;;;5069373;28;20434;-60
2021/09/29 07:50:12;;;;;;;0.88;0.40;;;16.80;99.90;;;;;;5072226;28;20426;-60
2021/09/29 07:52:40;;;;;;;1.17;0.40;;;16.80;99.90;;;;;;5071612;28;20485;-63
2021/09/29 07:55:15;;;;;;;0.60;0.35;;;16.80;99.90;;;;;;5071902;28;20428;-62
2021/09/29 07:57:45;;;;;;;0.95;0.40;;;16.80;99.90;;;;;;5072371;28;20427;-64
2021/09/29 08:00:19;;;;;;;0.70;0.40;;;17.00;99.90;;;;;;5072443;28;20432;-64
2021/09/29 08:02:46;;;;;;;1.20;0.30;;;17.00;99.90;;;;;;5072305;28;20427;-65
2021/09/29 08:05:15;;;;;;;0.90;0.40;;;16.90;99.90;;;;;;5071887;28;20411;-64
2021/09/29 08:07:43;;;;;;;0.60;0.40;;;16.90;99.90;;;;;;5075291;28;20455;-64
2021/09/29 08:10:17;;;;;;;0.60;0.30;;;16.90;99.90;;;;;;5091919;28;20417;-65
2021/09/29 08:12:47;;;;;;;0.70;0.30;;;17.00;99.90;;;;;;5090998;28;20818;-64
2021/09/29 08:15:16;;;;;;;1.40;0.40;;;17.00;99.90;;;;;;5089959;28;20429;-66
2021/09/29 08:17:45;;;;;;;0.90;0.40;;;17.10;99.90;;;;;;5093099;28;20461;-64
2021/09/29 08:20:23;;;;;;;1.02;0.30;;;17.40;99.90;;;;;;5092696;28;20433;-64
2021/09/29 08:22:55;;;;;;;0.60;0.30;;;17.50;99.90;;;;;;5089616;28;20708;-63
2021/09/29 08:25:44;;;;;;;0.60;0.30;;;17.50;99.90;;;;;;5086047;28;20430;-64
2021/09/29 08:28:19;;;;;;;0.80;0.32;;;17.30;99.90;;;;;;5072350;28;20427;-62
2021/09/29 08:30:58;;;;;;;2.15;0.40;;;17.30;99.90;;;;;;5089419;28;20829;-61
2021/09/29 08:33:44;;;;;;;39.78;3.42;;;17.40;99.90;;;;;;5093155;28;20418;-63
2021/09/29 08:36:20;;;;;;;1.83;0.30;;;17.60;99.90;;;;;;5091270;28;20453;-65
2021/09/29 08:38:51;;;;;;;1.00;0.30;;;17.60;99.90;;;;;;5081144;28;20469;-63
2021/09/29 08:41:36;;;;;;;1.77;0.30;;;17.60;99.90;;;;;;5086624;28;20430;-65
2021/09/29 08:44:08;;;;;;;1.10;0.30;;;17.50;99.90;;;;;;5081009;28;20434;-63
2021/09/29 08:46:49;;;;;;;0.60;0.30;;;17.50;99.90;;;;;;5087811;28;20418;-63
2021/09/29 08:49:24;;;;;;;0.60;0.30;;;17.60;99.90;;;;;;5070048;28;20435;-64
2021/09/29 08:52:03;;;;;;;0.60;0.30;;;17.80;99.90;;;;;;5072179;28;20569;-61
2021/09/29 08:54:55;;;;;;;2.20;0.40;;;17.70;99.90;;;;;;5088751;28;20487;-62
2021/09/29 08:57:42;;;;;;;2.00;0.40;;;17.80;99.90;;;;;;5092154;28;20508;-62
2021/09/29 09:17:31;;;;;;;0.77;0.30;;;18.30;99.90;;;;;;5082708;28;20838;-62
2021/09/29 09:20:18;;;;;;;0.90;0.30;;;18.30;99.90;;;;;;5087840;28;20433;-62
2021/09/29 09:22:52;;;;;;;1.15;0.30;;;18.50;99.90;;;;;;5080717;28;20423;-61
2021/09/29 09:25:32;;;;;;;0.73;0.30;;;18.70;99.90;;;;;;5072907;28;20435;-62
2021/09/29 09:27:59;;;;;;;1.02;0.20;;;18.70;99.90;;;;;;5072092;28;20882;-62
2021/09/29 09:30:31;;;;;;;0.50;0.20;;;18.70;99.90;;;;;;5086019;28;20429;-62
2021/09/29 09:33:00;;;;;;;1.80;0.30;;;18.50;99.90;;;;;;5081684;28;20458;-62
2021/09/29 09:35:31;;;;;;;1.00;0.30;;;18.60;99.90;;;;;;5074724;28;20743;-63
2021/09/29 09:38:00;;;;;;;1.10;0.20;;;18.50;99.90;;;;;;5072107;28;20432;-63
2021/09/29 09:40:31;;;;;;;2.40;0.30;;;18.50;99.90;;;;;;5071807;28;20746;-61
2021/09/29 09:42:59;;;;;;;0.70;0.30;;;18.90;99.90;;;;;;5069759;28;20700;-62
2021/09/29 09:45:38;;;;;;;0.60;0.28;;;19.40;99.90;;;;;;5085548;28;20512;-63
2021/09/29 09:48:21;;;;;;;1.30;0.40;;;19.50;99.90;;;;;;5087868;28;20429;-62
2021/09/29 09:50:53;;;;;;;1.27;0.40;;;19.50;99.90;;;;;;5082628;28;20775;-62
2021/09/29 09:53:20;;;;;;;1.30;0.30;;;19.60;99.90;;;;;;5085967;28;20921;-64
2021/09/29 09:55:48;;;;;;;0.60;0.30;;;19.60;99.90;;;;;;5079680;28;20766;-62
2021/09/29 09:58:15;;;;;;;0.60;0.30;;;19.70;99.90;;;;;;5089814;28;20427;-63
2021/09/29 10:00:45;;;;;;;0.50;0.30;;;19.50;99.90;;;;;;5083094;28;20446;-63
2021/09/29 10:03:14;;;;;;;1.10;0.30;;;19.20;99.90;;;;;;5085616;28;20856;-62
2021/09/29 10:05:43;;;;;;;1.77;0.30;;;18.90;99.90;;;;;;5088471;28;20437;-64
2021/09/29 10:08:15;;;;;;;1.20;0.40;;;19.10;99.90;;;;;;5088286;28;20457;-61
2021/09/29 10:10:59;;;;;;;0.93;0.30;;;19.40;99.90;;;;;;5089970;28;20413;-63
2021/09/29 10:27:39;;;;;;;0.40;0.20;;;19.10;99.90;;;;;;5085004;28;20439;-63
2021/09/29 10:30:24;;;;;;;0.68;0.20;;;19.10;99.90;;;;;;5086719;28;20854;-64
2021/09/29 10:32:58;;;;;;;1.20;0.20;;;19.20;99.90;;;;;;5088450;28;20448;-64
2021/09/29 10:35:34;;;;;;;0.50;0.20;;;19.30;99.90;;;;;;5087851;28;20425;-64
2021/09/29 10:41:05;;;;;;;0.60;0.25;;;19.30;99.90;;;;;;5089980;28;20681;-64
2021/09/29 10:43:53;;;;;;;0.60;0.30;;;19.10;99.90;;;;;;5088577;28;20422;-63
2021/09/29 10:46:33;;;;;;;1.40;0.20;;;19.20;99.90;;;;;;5091887;28;20422;-64
2021/09/29 10:49:18;;;;;;;0.40;0.20;;;19.00;99.90;;;;;;5089817;28;20429;-63
2021/09/29 11:03:35;;;;;;;0.90;0.20;;;19.30;99.90;;;;;;5089097;28;20412;-61
2021/09/29 11:06:34;;;;;;;1.20;0.30;;;19.40;99.90;;;;;;5085030;28;20413;-61
2021/09/29 11:09:30;;;;;;;0.40;0.20;;;19.50;99.90;;;;;;5092957;28;20421;-61
2021/09/29 11:28:58;;;;;;;0.90;0.20;;;20.70;99.90;;;;;;5083732;28;20433;-61
2021/09/29 11:31:27;;;;;;;0.52;0.20;;;21.10;99.90;;;;;;5091824;28;20837;-60
2021/09/29 11:34:01;;;;;;;0.40;0.20;;;21.10;99.90;;;;;;5092314;28;20864;-63
2021/09/29 11:36:45;;;;;;;1.80;0.30;;;21.10;99.90;;;;;;5092220;28;20901;-60
2021/09/29 11:39:57;;;;;;;0.68;0.20;;;21.40;99.90;;;;;;5091591;28;20521;-61
2021/09/29 12:10:21;;;;;;;0.60;0.20;;;20.90;99.90;;;;;;5089920;28;20417;-63
2021/09/29 12:12:52;;;;;;;1.20;0.20;;;21.00;99.90;;;;;;5091043;28;20835;-63
2021/09/29 12:15:20;;;;;;;0.50;0.20;;;21.20;99.90;;;;;;5092038;28;20460;-62
2021/09/29 12:17:50;;;;;;;2.38;0.20;;;21.20;99.90;;;;;;5091923;28;20422;-64
2021/09/29 12:20:25;;;;;;;0.60;0.22;;;21.40;99.90;;;;;;5083499;28;20797;-64
2021/09/29 12:23:00;;;;;;;0.90;0.10;;;21.60;99.90;;;;;;5089330;28;20426;-63
2021/09/29 12:25:31;;;;;;;0.40;0.20;;;21.60;99.90;;;;;;5080416;28;20437;-63
2021/09/29 12:28:19;;;;;;;0.90;0.20;;;21.70;99.90;;;;;;5092956;28;20433;-64
2021/09/29 12:31:06;;;;;;;0.47;0.20;;;21.80;99.90;;;;;;5075191;28;20838;-63
2021/09/29 12:33:46;;;;;;;0.30;0.10;;;21.70;99.90;;;;;;5086712;28;20471;-63
2021/09/29 12:36:15;;;;;;;1.90;0.20;;;21.60;99.90;;;;;;5074627;28;20426;-63
2021/09/29 12:38:48;;;;;;;1.00;0.20;;;21.30;99.90;;;;;;5073403;28;20435;-63
2021/09/29 12:41:18;;;;;;;0.40;0.10;;;21.20;99.90;;;;;;5071738;28;20494;-63
2021/09/29 12:43:47;;;;;;;1.00;0.20;;;21.20;99.90;;;;;;5069945;28;20423;-63
2021/09/29 12:46:16;;;;;;;1.00;0.20;;;21.00;99.90;;;;;;5069366;28;20481;-62
2021/09/29 12:48:48;;;;;;;0.50;0.20;;;20.80;99.90;;;;;;5067446;28;20435;-66
2021/09/29 12:51:16;;;;;;;1.20;0.30;;;20.80;99.90;;;;;;5068546;28;20426;-61
2021/09/29 12:53:50;;;;;;;0.87;0.20;;;20.90;99.90;;;;;;5083287;28;20437;-60
2021/09/29 12:56:18;;;;;;;0.93;0.20;;;20.80;99.90;;;;;;5080441;28;20570;-60
2021/09/29 12:58:52;;;;;;;0.75;0.20;;;20.70;99.90;;;;;;5080259;28;20450;-59
2021/09/29 13:01:20;;;;;;;0.45;0.20;;;20.70;99.90;;;;;;5091764;28;20433;-60
2021/09/29 13:03:50;;;;;;;0.47;0.20;;;20.70;99.90;;;;;;5091534;28;20488;-60
2021/09/29 13:06:17;;;;;;;0.50;0.20;;;20.70;99.90;;;;;;5089216;28;20458;-60
2021/09/29 13:08:45;;;;;;;0.52;0.30;;;20.70;99.90;;;;;;5084174;28;20872;-61
2021/09/29 13:11:12;;;;;;;0.80;0.20;;;20.40;99.90;;;;;;5090456;28;20414;-62
2021/09/29 13:13:40;;;;;;;0.40;0.20;;;20.50;99.90;;;;;;5089182;28;20426;-62
2021/09/29 13:16:12;;;;;;;0.40;0.20;;;20.50;99.90;;;;;;5091508;28;20459;-62
2021/09/29 13:18:48;;;;;;;0.60;0.25;;;20.70;99.90;;;;;;5088985;28;20516;-62
2021/09/29 13:21:26;;;;;;;0.50;0.20;;;20.80;99.90;;;;;;5083754;28;20437;-61
2021/09/29 13:23:56;;;;;;;0.50;0.20;;;21.10;99.90;;;;;;5092017;28;20520;-62
2021/09/29 13:37:31;;;;;;;0.30;0.20;;;20.20;99.90;;;;;;5094987;28;20465;-62
2021/09/29 13:39:59;;;;;;;1.00;0.20;;;20.10;99.90;;;;;;5094252;28;20429;-62
2021/09/29 13:42:26;;;;;;;2.60;0.30;;;19.80;99.90;;;;;;5092888;28;20437;-60
2021/09/29 13:44:54;;;;;;;0.60;0.30;;;19.60;99.90;;;;;;5095628;28;20726;-61
2021/09/29 13:47:23;;;;;;;1.53;0.30;;;19.50;99.90;;;;;;5096413;28;20841;-61
2021/09/29 13:49:56;;;;;;;0.80;0.30;;;19.10;99.90;;;;;;5086852;28;20429;-62
2021/09/29 13:52:25;;;;;;;1.30;0.40;;;18.80;99.90;;;;;;5076003;28;20826;-61
2021/09/29 13:55:00;;;;;;;0.70;0.30;;;18.40;99.90;;;;;;5075772;28;20574;-61
2021/09/29 13:57:33;;;;;;;0.60;0.20;;;18.50;99.90;;;;;;5078570;28;20424;-61
2021/09/29 14:00:10;;;;;;;0.70;0.20;;;18.60;99.90;;;;;;5088643;28;20726;-62
2021/09/29 14:03:01;;;;;;;0.40;0.20;;;18.40;99.90;;;;;;5086065;28;20457;-62
2021/09/29 14:30:24;;;;;;;0.90;0.17;;;18.20;99.90;;;;;;5096741;28;20456;-61
2021/09/29 14:33:00;;;;;;;0.40;0.10;;;17.80;99.90;;;;;;5094278;28;20849;-62
2021/09/29 14:35:29;;;;;;;2.50;0.20;;;17.40;99.90;;;;;;5091523;28;20593;-61
2021/09/29 14:37:59;;;;;;;0.30;0.10;;;17.40;99.90;;;;;;5078608;28;20475;-62
2021/09/29 14:40:27;;;;;;;0.30;0.10;;;17.10;99.90;;;;;;5094439;28;20434;-60
2021/09/29 14:42:57;;;;;;;0.30;0.10;;;16.60;99.90;;;;;;5094013;28;20857;-61
2021/09/29 14:45:26;;;;;;;0.40;0.10;;;16.90;99.90;;;;;;5095029;28;20717;-61
2021/09/29 14:47:56;;;;;;;0.50;0.20;;;16.90;99.90;;;;;;5094484;28;20475;-61
2021/09/29 14:50:29;;;;;;;0.40;0.20;;;17.10;99.90;;;;;;5087031;28;20444;-62
2021/09/29 14:53:01;;;;;;;0.80;0.20;;;16.90;99.90;;;;;;5087501;28;20479;-61
2021/09/29 14:55:33;;;;;;;0.50;0.20;;;17.10;99.90;;;;;;5093394;28;20434;-60
2021/09/29 14:58:02;;;;;;;0.40;0.20;;;17.10;99.90;;;;;;5079352;28;20487;-61
2021/09/29 15:00:33;;;;;;;0.80;0.30;;;17.10;99.90;;;;;;5094737;28;20463;-60
2021/09/29 15:03:15;;;;;;;2.00;0.40;;;17.20;99.90;;;;;;5090733;28;20430;-61
2021/09/29 15:05:42;;;;;;;0.40;0.20;;;17.10;99.90;;;;;;5086410;28;20856;-61
2021/09/29 15:08:11;;;;;;;0.77;0.20;;;17.30;99.90;;;;;;5090301;28;20428;-60
2021/09/29 15:10:41;;;;;;;0.80;0.20;;;17.20;99.90;;;;;;5091846;28;20438;-62
2021/09/29 15:13:11;;;;;;;1.08;0.20;;;17.30;99.90;;;;;;5072663;28;20419;-62
2021/09/29 15:15:46;;;;;;;0.30;0.10;;;17.40;99.90;;;;;;5072121;28;20424;-62